Airfield :
LOGIN :

Register | Disclaimer

   EN    FR    IT 

 










Legend :    VFR   Marginal VFR   IFR   Intensive IFR   Very Intensive IFR
Visi :
Ceiling :
>= 8 km
>= 3000ft
5 to 8 km
1000 to 3000 ft
1500m to 5 km
500 to 1000 ft
800 to 1500m
200 to 500 ft
< 800m
< 200 ft
Symbols :   Thunderstorms  Fog  Heavy snow  Heavy precipitations  Wind > 20 kt
SIGMETs :     Misc.  Thunderstorms  Icing  Turbulence  Mountain Waves  Volcanic Ashes







- Airport Elevation : 209 ft
- IATA code : CLY
- Download approach charts


LFKC - Calvi

CURRENT METAR :
  • 260930Z AUTO 34005KT 280V010 9999 FEW070 BKN084 BKN100 19/14 Q1011 TEMPO SHRA BKN025 FEW030TCU BKN060

EXPIRED METARs :
  • 260900Z AUTO 29006KT 230V330 9999 FEW009 BKN100 BKN200 18/15 Q1011 NOSIG
  • 260830Z AUTO 34008KT 300V360 9999 FEW019 BKN092 BKN120 18/15 Q1011 TEMPO BKN025 FEW030TCU BKN060
  • 260800Z AUTO 34008KT 300V010 9999 FEW013 BKN094 BKN190 19/15 Q1011 TEMPO BKN025 FEW030TCU BKN060
  • 260730Z AUTO 34007KT 280V010 9999 BKN019 BKN098 BKN160 18/15 Q1011 TEMPO BKN025 FEW030TCU BKN060
  • 260700Z AUTO 36005KT 310V030 9999 BKN016 BKN022 BKN200 18/15 Q1011 TEMPO BKN025 FEW030TCU BKN060

TAF TAF LFKC
Valid from the 26 at 09:00 until the 27 at 09:00 UTC


260800Z 2609/2709 02010KT 9999 FEW015 BKN060 BKN200 TX20/2612Z TN13/2704Z
TEMPO 2611/2620 SHRA BKN025 FEW030TCU BKN060
BECMG 2702/2703 6000 RA BKN025
TEMPO 2702/2707 3000 SHRA BKN010 FEW030CB
ATIS : +33 4 95 65 82 49
No reported NOTAMs for that airfield.
2 SIGMETs reported for the Marseille FIR (LFMM) :
 
Severe turbulence
LFMM SIGMET 3 VALID 261100/261500 LFPW
LFMM MARSEILLE FIR/UIR SEV TURB FCST WI N3900 E00545 - N3900 E00430 - N4200 E00430 - N4630 E00600 - N4630 E00700 - N4415 E00700 - N3900 E00545 FL240/320 STNR NC=
Severe turbulence
LFMM SIGMET 2 VALID 260700/261100 LFPW
LFMM MARSEILLE FIR/UIR SEV TURB FCST WI N3900 E00600 - N3900 E00430 - N4145 E00430 - N4630 E00600 - N4630 E00700 - N4415 E00700 - N3900 E00600 FL220/310 STNR NC=



MET'MAP, your aeronautical weather chart ! - Copyright ORBIFLY December 2007 - Disclaimer

ORBIFLY MET'MAP TEAM :

Programming & Development : Alexandra Zaïnal
Concept & Development : Baudouin d'Aumeries
Co-Development & Prog : Marc-Olivier Méhu
Technical & hardware support : Manuel Goepfert

Contact : metmap@orbifly.com




SOURCES & CREDITS :

   NOAA